createdAt,value
2019-04-14T00:03:07.055Z,100185.19
2019-04-14T00:08:13.417Z,100176.27
2019-04-14T00:13:19.594Z,100186.98
2019-04-14T00:18:25.183Z,100193.66
2019-04-14T00:23:30.623Z,100174.66
2019-04-14T00:34:24.513Z,100201.02
2019-04-14T00:39:33.644Z,100204.84
2019-04-14T00:44:45.245Z,100223.37
2019-04-14T00:49:50.997Z,100231.27
2019-04-14T00:54:56.546Z,100223.69
2019-04-14T01:00:02.088Z,100231.25
2019-04-14T01:05:08.923Z,100249.47
2019-04-14T01:10:15.053Z,100232.78
2019-04-14T01:15:20.537Z,100223.53
2019-04-14T01:20:26.064Z,100218.66
2019-04-14T01:25:32.434Z,100215.09
2019-04-14T01:30:39.359Z,100204.45
2019-04-14T01:35:44.965Z,100182.84
2019-04-14T01:40:51.008Z,100173.24
2019-04-14T01:46:07.216Z,100155.23
2019-04-14T01:51:11.387Z,100148.95
2019-04-14T01:56:27.794Z,100134.26
2019-04-14T02:01:34.615Z,100148.42
2019-04-14T02:06:40.252Z,100147.52
2019-04-14T02:11:46.618Z,100151.63
2019-04-14T02:16:56.103Z,100151.63
2019-04-14T02:22:00.535Z,100155.64
2019-04-14T02:27:06.211Z,100129.13
2019-04-14T02:37:54.485Z,100159.08
2019-04-14T02:42:54.746Z,100166.62
2019-04-14T02:48:20.467Z,100138.37
2019-04-14T02:53:18.081Z,100173.24
2019-04-14T02:58:20.499Z,100156.53
2019-04-14T03:08:39.794Z,100105.03
2019-04-14T03:13:41.166Z,100170.35
2019-04-14T03:29:23.376Z,100185.81
2019-04-14T03:49:45.400Z,100145.81
2019-04-14T03:54:52.634Z,100147.57
2019-04-14T03:59:37.674Z,100141.17
2019-04-14T04:04:43.046Z,100104.55
2019-04-14T04:09:54.123Z,100090.39
2019-04-14T04:14:59.754Z,100132.49
2019-04-14T04:20:17.411Z,100136.17
2019-04-14T04:25:28.996Z,100142.48
2019-04-14T04:30:42.669Z,100144.95
2019-04-14T04:35:56.264Z,100158.22
2019-04-14T04:41:02.017Z,100167.23
2019-04-14T04:46:07.504Z,100145.80
2019-04-14T04:51:13.941Z,100143.98
2019-04-14T04:56:20.518Z,100152.89
2019-04-14T05:01:27.386Z,100151.61
2019-04-14T05:06:50.643Z,100184.34
2019-04-14T05:12:04.456Z,100157.48
2019-04-14T05:17:10.244Z,100160.20
2019-04-14T05:22:17.808Z,100143.07
2019-04-14T05:27:25.319Z,100163.85
2019-04-14T05:32:31.038Z,100181.94
2019-04-14T05:37:37.754Z,100170.50
2019-04-14T05:42:43.333Z,100173.59
2019-04-14T05:47:50.021Z,100175.37
2019-04-14T05:52:55.855Z,100151.91
2019-04-14T05:58:03.523Z,100187.31
2019-04-14T06:03:10.192Z,100155.52
2019-04-14T06:08:15.845Z,100134.80
2019-04-14T06:13:21.362Z,100188.64
2019-04-14T06:18:26.879Z,100169.72
2019-04-14T06:23:32.469Z,100161.32
2019-04-14T06:28:38.034Z,100095.58
2019-04-14T06:33:51.997Z,100118.61
2019-04-14T06:39:04.348Z,100107.63
2019-04-14T06:44:09.869Z,100156.94
2019-04-14T06:49:15.286Z,100149.91
2019-04-14T06:54:20.952Z,100152.07
2019-04-14T06:59:26.429Z,100160.02
2019-04-14T07:04:32.032Z,100171.48
2019-04-14T07:09:37.632Z,100191.70
2019-04-14T07:14:43.298Z,100166.52
2019-04-14T07:20:01.018Z,100186.69
2019-04-14T07:24:55.946Z,100185.09
2019-04-14T07:30:10.043Z,100196.92
2019-04-14T07:35:25.527Z,100208.81
2019-04-14T07:40:45.735Z,100206.17
2019-04-14T07:45:57.748Z,100193.77
2019-04-14T07:51:12.082Z,100219.35
2019-04-14T07:56:26.959Z,100194.66
2019-04-14T08:01:41.541Z,100181.86
2019-04-14T08:06:50.401Z,100192.84
2019-04-14T08:11:56.215Z,100173.03
2019-04-14T08:17:01.945Z,100147.80
2019-04-14T08:22:07.757Z,100146.60
2019-04-14T08:27:13.476Z,100139.02
2019-04-14T08:32:19.119Z,100127.12
2019-04-14T08:37:24.820Z,100125.36
2019-04-14T08:42:42.751Z,100145.48
2019-04-14T08:47:53.879Z,100173.64
2019-04-14T08:53:04.867Z,100145.48
2019-04-14T08:58:22.316Z,100168.38
2019-04-14T09:03:36.168Z,100141.52
2019-04-14T09:08:54.458Z,100120.25
2019-04-14T09:14:00.124Z,100083.07
2019-04-14T09:19:07.931Z,100118.21
2019-04-14T09:24:13.218Z,100110.52
2019-04-14T09:29:18.837Z,100109.44
2019-04-14T09:34:24.560Z,100111.56
2019-04-14T09:39:30.278Z,100102.23
2019-04-14T09:44:36.000Z,100121.45
2019-04-14T09:49:41.882Z,100098.00
2019-04-14T09:54:47.606Z,100090.05
2019-04-14T09:59:53.259Z,100096.15
2019-04-14T10:04:59.019Z,100119.20
2019-04-14T10:10:04.808Z,100117.73
2019-04-14T10:15:10.599Z,100126.66
2019-04-14T10:20:16.375Z,100185.41
2019-04-14T10:25:22.101Z,100199.98
2019-04-14T10:30:27.786Z,100227.30
2019-04-14T10:35:33.275Z,100197.17
2019-04-14T10:40:38.824Z,100224.92
2019-04-14T10:45:44.490Z,100204.13
2019-04-14T10:50:50.131Z,100203.57
2019-04-14T10:55:55.794Z,100221.19
2019-04-14T11:01:01.711Z,100179.34
2019-04-14T11:06:16.033Z,100186.31
2019-04-14T11:11:21.768Z,100176.23
2019-04-14T11:16:27.754Z,100218.23
2019-04-14T11:21:42.492Z,100183.45
2019-04-14T11:26:40.514Z,100189.55
2019-04-14T11:31:54.051Z,100176.17
2019-04-14T11:37:08.098Z,100178.37
2019-04-14T11:42:14.065Z,100188.97
2019-04-14T11:47:19.696Z,100188.55
2019-04-14T11:52:25.345Z,100176.10
2019-04-14T11:57:31.504Z,100183.56
2019-04-14T12:02:51.985Z,100170.16
2019-04-14T12:08:07.191Z,100166.79
2019-04-14T12:13:12.961Z,100140.22
2019-04-14T12:18:18.631Z,100147.69
2019-04-14T12:23:24.811Z,100179.09
2019-04-14T12:28:30.373Z,100162.48
2019-04-14T12:33:36.028Z,100161.53
2019-04-14T12:38:41.811Z,100176.33
2019-04-14T12:43:58.152Z,100158.84
2019-04-14T12:49:09.292Z,100185.17
2019-04-14T12:54:14.772Z,100178.05
2019-04-14T12:59:23.384Z,100190.56
2019-04-14T13:04:30.941Z,100186.42
2019-04-14T13:09:36.624Z,100196.84
2019-04-14T13:14:42.461Z,100199.14
2019-04-14T13:19:48.391Z,100195.63
2019-04-14T13:24:54.153Z,100154.05
2019-04-14T13:30:00.042Z,100179.98
2019-04-14T13:35:06.062Z,100207.08
2019-04-14T13:40:12.190Z,100209.02
2019-04-14T13:45:17.950Z,100191.55
2019-04-14T13:50:23.610Z,100191.56
2019-04-14T13:55:29.276Z,100191.56
2019-04-14T14:00:35.067Z,100201.75
2019-04-14T14:05:43.438Z,100178.77
2019-04-14T14:10:47.876Z,100206.17
2019-04-14T14:16:02.078Z,100188.42
2019-04-14T14:21:17.657Z,100174.91
2019-04-14T14:26:26.717Z,100174.91
2019-04-14T14:31:32.502Z,100176.23
2019-04-14T14:36:38.096Z,100177.52
2019-04-14T14:41:43.817Z,100171.77
2019-04-14T14:46:56.855Z,100176.65
2019-04-14T14:52:07.457Z,100175.81
2019-04-14T14:57:13.095Z,100171.11
2019-04-14T15:02:18.746Z,100181.69
2019-04-14T15:07:25.162Z,100162.06
2019-04-14T15:12:30.827Z,100152.19
2019-04-14T15:17:36.507Z,100162.31
2019-04-14T15:22:42.165Z,100150.61
2019-04-14T15:27:47.727Z,100150.89
2019-04-14T15:32:53.330Z,100173.77
2019-04-14T15:37:59.216Z,100148.48
2019-04-14T15:43:04.926Z,100162.68
2019-04-14T15:48:10.443Z,100141.73
2019-04-14T15:53:16.086Z,100160.26
2019-04-14T15:58:31.708Z,100094.45
2019-04-14T16:03:46.110Z,100137.23
2019-04-14T16:09:02.063Z,100134.97
2019-04-14T16:14:17.056Z,100136.75
2019-04-14T16:19:31.064Z,100140.80
2019-04-14T16:24:37.130Z,100112.72
2019-04-14T16:29:52.063Z,100083.12
2019-04-14T16:35:00.501Z,100090.28
2019-04-14T16:40:07.385Z,100081.80
2019-04-14T16:45:13.741Z,100068.80
2019-04-14T16:50:20.462Z,100059.38
2019-04-14T16:55:44.843Z,100050.31
2019-04-14T17:00:57.386Z,100049.00
2019-04-14T17:06:03.065Z,100070.91
2019-04-14T17:11:08.842Z,100074.28
2019-04-14T17:16:26.319Z,100081.30
2019-04-14T17:21:35.528Z,100057.45
2019-04-14T17:26:53.366Z,100065.70
2019-04-14T17:32:05.809Z,100038.80
2019-04-14T17:37:20.658Z,100044.68
2019-04-14T17:42:34.142Z,100056.68
2019-04-14T17:53:23.108Z,100049.42
2019-04-14T18:03:48.942Z,100021.57
2019-04-14T18:09:03.145Z,100009.27
2019-04-14T18:14:17.524Z,100020.41
2019-04-14T18:19:30.102Z,100021.72
2019-04-14T18:24:42.097Z,100005.66
2019-04-14T18:29:51.876Z,100014.91
2019-04-14T18:35:06.873Z,100051.17
2019-04-14T18:40:17.299Z,100008.86
2019-04-14T18:45:30.411Z,99998.58
2019-04-14T18:50:56.341Z,100015.20
2019-04-14T18:56:08.143Z,100013.34
2019-04-14T19:01:18.076Z,100001.03
2019-04-14T19:06:23.765Z,99943.22
2019-04-14T19:11:48.077Z,100025.31
2019-04-14T19:16:58.546Z,100003.42
2019-04-14T19:22:04.131Z,99992.30
2019-04-14T19:27:12.621Z,100002.96
2019-04-14T19:32:18.205Z,99980.51
2019-04-14T19:37:23.902Z,100025.80
2019-04-14T19:42:29.549Z,99992.34
2019-04-14T19:47:35.302Z,99996.56
2019-04-14T19:52:41.004Z,100045.00
2019-04-14T19:57:46.464Z,100053.63
2019-04-14T20:02:52.165Z,100020.66
2019-04-14T20:07:58.121Z,100039.25
2019-04-14T20:13:04.325Z,100049.02
2019-04-14T20:18:23.210Z,100040.20
2019-04-14T20:23:37.678Z,100030.09
2019-04-14T20:28:48.377Z,100007.09
2019-04-14T20:33:54.807Z,100003.88
2019-04-14T20:39:00.402Z,100001.69
2019-04-14T20:44:06.582Z,99978.37
2019-04-14T20:49:12.329Z,99943.80
2019-04-14T20:54:18.113Z,99983.05
2019-04-14T20:59:23.805Z,99982.20
2019-04-14T21:04:38.804Z,99976.41
2019-04-14T21:09:49.669Z,99967.02
2019-04-14T21:15:01.399Z,99955.79
2019-04-14T21:20:18.703Z,99943.89
2019-04-14T21:25:31.642Z,99952.58
2019-04-14T21:30:45.339Z,99924.23
2019-04-14T21:35:57.224Z,99896.41
2019-04-14T21:41:08.063Z,99930.86
2019-04-14T21:46:13.942Z,99902.91
2019-04-14T21:51:19.565Z,99850.82
2019-04-14T21:56:27.082Z,99897.50
2019-04-14T22:01:46.008Z,99922.50
2019-04-14T22:06:53.222Z,99908.28
2019-04-14T22:12:02.296Z,99916.62
2019-04-14T22:17:08.122Z,99942.11
2019-04-14T22:22:13.650Z,99927.25
2019-04-14T22:27:19.676Z,99923.05
2019-04-14T22:32:26.005Z,99910.59
2019-04-14T22:37:31.382Z,99887.13
2019-04-14T22:42:37.063Z,99899.73
2019-04-14T22:47:42.462Z,99887.83
2019-04-14T22:52:48.107Z,99868.30
2019-04-14T22:57:53.785Z,99868.89
2019-04-14T23:03:10.269Z,99859.94
2019-04-14T23:08:25.426Z,99900.98
2019-04-14T23:13:38.645Z,99882.80
2019-04-14T23:18:50.375Z,99812.92
2019-04-14T23:24:04.971Z,99904.22
2019-04-14T23:29:10.749Z,99891.81
2019-04-14T23:34:16.262Z,99841.45
2019-04-14T23:39:22.060Z,99881.59
2019-04-14T23:44:27.945Z,99901.45
2019-04-14T23:49:33.580Z,99858.38
2019-04-14T23:54:39.310Z,99834.77
2019-04-14T23:59:44.870Z,99855.59
